KPSF/PSF METAR and TAF weather

Enter ICAO airport designator
Station Type Date Time Source
KPSF METAR 2020/04/03 07:54 UTC NOAA

KPSF 030754Z AUTO 34010G18KT 6SM -RA OVC011 03/01 A2957 RMK AO2 RAB47 SLP011 P0001 T00330006


Station Type Date Time Source
KPSF Decoded METAR 2020/04/03 07:54 UTC NOAA

PITTSFIELD MUNICIPAL AIRPORT , MA, United States (KPSF) 42-26N 073-17W 355M
Apr 03, 2020 - 03:54 AM EDT / 2020.04.03 0754 UTC
Wind: from the NNW (340 degrees) at 12 MPH (10 KT) gusting to 21 MPH (18 KT):0
Visibility: 6 mile(s):0
Sky conditions: overcast
Weather: light rain
Precipitation last hour: 0.01 inches
Temperature: 37.9 F (3.3 C)
Dew Point: 33.1 F (0.6 C)
Relative Humidity: 82%
Pressure (altimeter): 29.57 in. Hg (1001 hPa)
ob: KPSF 030754Z AUTO 34010G18KT 6SM -RA OVC011 03/01 A2957 RMK AO2 RAB47 SLP011 P0001 T00330006
cycle: 8

Station Type Date Time Source
KPSF TAF 2020/04/03 06:21 UTC NOAA

TAF KPSF 030520Z 0306/0406 33010G20KT P6SM -SHRA OVC015
FM030900 34010G18KT 5SM -RA BR OVC010
FM031600 36011G24KT P6SM VCSH OVC012
FM032000 01011G21KT P6SM OVC015
FM040200 36008KT P6SM BKN015

Example: see airport list